createdAt,value
2018-11-28T00:00:56.520Z,1.10
2018-11-28T00:05:00.556Z,1.19
2018-11-28T00:09:21.156Z,1.21
2018-11-28T00:13:25.169Z,1.29
2018-11-28T00:17:29.164Z,1.25
2018-11-28T00:21:33.165Z,1.30
2018-11-28T00:25:37.130Z,1.34
2018-11-28T00:29:41.190Z,1.35
2018-11-28T00:33:45.209Z,1.31
2018-11-28T00:37:49.227Z,1.31
2018-11-28T00:41:53.280Z,1.36
2018-11-28T00:45:57.324Z,1.34
2018-11-28T00:50:01.287Z,1.39
2018-11-28T00:54:05.433Z,1.35
2018-11-28T00:58:09.435Z,1.32
2018-11-28T01:02:13.469Z,1.31
2018-11-28T01:06:17.492Z,1.32
2018-11-28T01:10:22.442Z,1.31
2018-11-28T01:14:26.517Z,1.20
2018-11-28T01:18:30.492Z,1.28
2018-11-28T01:22:34.548Z,1.30
2018-11-28T01:26:38.616Z,1.26
2018-11-28T01:30:42.657Z,1.26
2018-11-28T01:34:46.697Z,1.31
2018-11-28T01:38:50.620Z,1.27
2018-11-28T01:42:54.882Z,1.35
2018-11-28T01:46:58.996Z,1.32
2018-11-28T01:51:03.080Z,1.40
2018-11-28T01:55:08.646Z,1.40
2018-11-28T01:59:12.638Z,1.41
2018-11-28T02:03:16.665Z,1.45
2018-11-28T02:07:20.829Z,1.48
2018-11-28T02:11:24.849Z,1.58
2018-11-28T02:15:29.029Z,1.64
2018-11-28T02:19:33.037Z,1.66
2018-11-28T02:23:37.089Z,1.67
2018-11-28T02:27:41.156Z,1.77
2018-11-28T02:31:45.120Z,1.86
2018-11-28T02:35:49.102Z,1.85
2018-11-28T02:39:53.081Z,1.87
2018-11-28T02:43:57.077Z,1.90
2018-11-28T02:48:01.117Z,1.94
2018-11-28T02:52:05.316Z,1.96
2018-11-28T02:56:09.397Z,1.90
2018-11-28T03:00:18.365Z,1.99
2018-11-28T03:04:22.473Z,1.95
2018-11-28T03:08:26.506Z,1.96
2018-11-28T03:12:30.576Z,2.02
2018-11-28T03:16:34.629Z,2.01
2018-11-28T03:20:38.603Z,2.06
2018-11-28T03:24:42.544Z,2.09
2018-11-28T03:28:46.577Z,2.19
2018-11-28T03:32:50.556Z,2.12
2018-11-28T03:36:54.768Z,2.07
2018-11-28T03:40:58.887Z,2.10
2018-11-28T03:45:02.914Z,2.17
2018-11-28T03:49:06.888Z,2.16
2018-11-28T03:53:10.884Z,2.25
2018-11-28T03:57:14.961Z,2.31
2018-11-28T04:01:18.956Z,2.33
2018-11-28T04:05:22.926Z,2.35
2018-11-28T04:09:27.020Z,2.34
2018-11-28T04:13:31.120Z,2.36
2018-11-28T04:17:35.142Z,2.40
2018-11-28T04:21:39.105Z,2.37
2018-11-28T04:25:43.165Z,2.39
2018-11-28T04:29:47.182Z,2.46
2018-11-28T04:33:51.195Z,2.54
2018-11-28T04:37:55.352Z,2.57
2018-11-28T04:41:59.398Z,2.58
2018-11-28T04:46:03.379Z,2.68
2018-11-28T04:50:08.708Z,2.68
2018-11-28T04:54:12.784Z,2.73
2018-11-28T04:58:16.821Z,2.78
2018-11-28T05:02:20.853Z,2.77
2018-11-28T05:06:36.213Z,2.84
2018-11-28T05:10:40.269Z,2.86
2018-11-28T05:14:44.275Z,2.90
2018-11-28T05:18:48.412Z,2.96
2018-11-28T05:22:52.435Z,2.98
2018-11-28T05:26:56.710Z,3.19
2018-11-28T05:31:00.645Z,3.29
2018-11-28T05:35:05.035Z,3.34
2018-11-28T05:39:09.117Z,3.40
2018-11-28T05:43:13.340Z,3.44
2018-11-28T05:47:18.409Z,3.50
2018-11-28T05:51:22.441Z,3.50
2018-11-28T05:55:26.606Z,3.48
2018-11-28T05:59:30.637Z,3.56
2018-11-28T06:03:34.720Z,3.58
2018-11-28T06:07:38.751Z,3.61
2018-11-28T06:11:42.836Z,3.65
2018-11-28T06:15:46.897Z,3.65
2018-11-28T06:19:51.076Z,3.55
2018-11-28T06:23:55.075Z,3.52
2018-11-28T06:27:59.044Z,3.55
2018-11-28T06:32:03.049Z,3.59
2018-11-28T06:36:07.059Z,3.60
2018-11-28T06:40:13.049Z,3.65
2018-11-28T06:44:17.030Z,3.66
2018-11-28T06:48:21.079Z,3.66
2018-11-28T06:52:25.097Z,3.65
2018-11-28T06:56:29.148Z,3.71
2018-11-28T07:00:33.130Z,3.72
2018-11-28T07:04:37.204Z,3.73
2018-11-28T07:08:41.179Z,3.80
2018-11-28T07:12:45.142Z,3.82
2018-11-28T07:16:49.134Z,3.75
2018-11-28T07:20:53.105Z,3.82
2018-11-28T07:24:57.103Z,3.80
2018-11-28T07:29:01.064Z,3.73
2018-11-28T07:33:05.668Z,3.75
2018-11-28T07:37:09.907Z,3.77
2018-11-28T07:41:13.874Z,3.81
2018-11-28T07:45:17.900Z,3.76
2018-11-28T07:49:21.982Z,3.80
2018-11-28T07:53:26.107Z,3.81
2018-11-28T07:57:30.200Z,3.86
2018-11-28T08:01:34.297Z,3.84
2018-11-28T08:05:39.182Z,3.90
2018-11-28T08:09:43.325Z,4.00
2018-11-28T08:13:47.418Z,4.05
2018-11-28T08:17:51.481Z,4.12
2018-11-28T08:21:55.445Z,4.14
2018-11-28T08:25:59.447Z,4.18
2018-11-28T08:30:03.613Z,4.26
2018-11-28T08:34:07.661Z,4.32
2018-11-28T08:38:11.684Z,4.36
2018-11-28T08:42:15.773Z,4.49
2018-11-28T08:46:19.724Z,4.48
2018-11-28T08:50:25.852Z,4.58
2018-11-28T08:54:29.908Z,4.60
2018-11-28T08:58:34.009Z,4.68
2018-11-28T09:02:38.020Z,4.75
2018-11-28T09:06:41.969Z,4.82
2018-11-28T09:10:45.973Z,4.80
2018-11-28T09:14:49.941Z,4.86
2018-11-28T09:18:53.940Z,4.95
2018-11-28T09:22:57.911Z,4.95
2018-11-28T09:27:02.136Z,4.95
2018-11-28T09:31:06.227Z,5.04
2018-11-28T09:35:11.011Z,5.10
2018-11-28T09:39:15.040Z,5.19
2018-11-28T09:43:19.024Z,5.13
2018-11-28T09:47:23.010Z,5.14
2018-11-28T09:51:27.031Z,5.15
2018-11-28T09:55:31.012Z,5.23
2018-11-28T09:59:35.092Z,5.23
2018-11-28T10:03:39.202Z,5.27
2018-11-28T10:07:43.232Z,5.34
2018-11-28T10:11:47.217Z,5.37
2018-11-28T10:15:51.290Z,5.53
2018-11-28T10:19:55.268Z,5.56
2018-11-28T10:23:59.283Z,5.55
2018-11-28T10:28:06.160Z,5.60
2018-11-28T10:32:10.254Z,5.65
2018-11-28T10:36:14.194Z,5.85
2018-11-28T10:40:19.110Z,5.87
2018-11-28T10:44:23.139Z,5.88
2018-11-28T10:48:27.287Z,5.91
2018-11-28T10:52:31.394Z,5.88
2018-11-28T10:56:35.575Z,5.94
2018-11-28T11:00:44.800Z,5.99
2018-11-28T11:04:54.236Z,6.02
2018-11-28T11:09:03.658Z,5.99
2018-11-28T11:13:13.101Z,6.01
2018-11-28T11:17:17.236Z,6.06
2018-11-28T11:21:21.331Z,6.12
2018-11-28T11:25:25.261Z,6.21
2018-11-28T11:29:29.236Z,6.34
2018-11-28T11:33:33.231Z,6.27
2018-11-28T11:37:37.881Z,6.40
2018-11-28T11:41:41.899Z,6.48
2018-11-28T11:45:45.829Z,6.74
2018-11-28T11:49:49.867Z,7.25
2018-11-28T11:53:54.799Z,7.14
2018-11-28T11:57:58.862Z,7.29
2018-11-28T12:02:02.875Z,7.35
2018-11-28T12:06:06.948Z,7.27
2018-11-28T12:18:48.129Z,7.85
2018-11-28T12:22:52.921Z,7.65
2018-11-28T12:26:56.365Z,7.61
2018-11-28T12:31:00.375Z,7.59
2018-11-28T12:35:04.448Z,7.58
2018-11-28T12:39:10.920Z,7.77
2018-11-28T12:43:14.953Z,7.58
2018-11-28T12:47:18.940Z,7.67
2018-11-28T12:51:22.975Z,7.55
2018-11-28T12:55:27.075Z,7.68
2018-11-28T12:59:31.107Z,7.68
2018-11-28T13:03:35.165Z,7.68
2018-11-28T13:07:39.187Z,7.79
2018-11-28T13:11:43.243Z,7.61
2018-11-28T13:15:47.322Z,7.51
2018-11-28T13:19:51.262Z,7.60
2018-11-28T13:23:56.233Z,7.50
2018-11-28T13:28:00.208Z,7.28
2018-11-28T13:32:04.162Z,7.33
2018-11-28T13:36:08.156Z,7.27
2018-11-28T13:40:13.270Z,7.28
2018-11-28T13:44:17.252Z,7.31
2018-11-28T13:48:21.339Z,7.37
2018-11-28T13:52:25.397Z,7.27
2018-11-28T13:56:58.284Z,7.30
2018-11-28T14:00:33.531Z,7.30
2018-11-28T14:04:37.528Z,7.35
2018-11-28T14:08:41.571Z,7.38
2018-11-28T14:12:45.563Z,7.32
2018-11-28T14:16:49.626Z,7.35
2018-11-28T14:20:53.711Z,7.32
2018-11-28T14:24:57.825Z,7.35
2018-11-28T14:29:01.838Z,7.31
2018-11-28T14:33:05.832Z,7.26
2018-11-28T14:37:09.813Z,7.20
2018-11-28T14:41:13.790Z,7.19
2018-11-28T14:45:18.516Z,7.19
2018-11-28T14:49:22.735Z,7.07
2018-11-28T14:53:26.719Z,7.04
2018-11-28T14:57:30.828Z,6.91
2018-11-28T15:01:34.898Z,6.74
2018-11-28T15:05:41.685Z,6.67
2018-11-28T15:09:51.101Z,6.56
2018-11-28T15:13:55.160Z,6.48
2018-11-28T15:17:59.148Z,6.48
2018-11-28T15:22:03.186Z,6.46
2018-11-28T15:26:07.475Z,6.44
2018-11-28T15:30:11.489Z,6.34
2018-11-28T15:34:15.494Z,6.22
2018-11-28T15:38:19.497Z,6.18
2018-11-28T15:42:23.545Z,6.12
2018-11-28T15:46:27.597Z,6.15
2018-11-28T15:50:31.612Z,6.08
2018-11-28T15:54:35.689Z,6.16
2018-11-28T15:58:39.745Z,6.13
2018-11-28T16:02:43.862Z,6.09
2018-11-28T16:06:47.928Z,6.07
2018-11-28T16:10:52.157Z,5.99
2018-11-28T16:14:56.364Z,5.91
2018-11-28T16:19:00.445Z,5.82
2018-11-28T16:23:04.668Z,5.82
2018-11-28T16:27:08.475Z,5.77
2018-11-28T16:31:12.589Z,5.76
2018-11-28T16:35:17.572Z,5.78
2018-11-28T16:39:21.665Z,5.78
2018-11-28T16:43:25.726Z,5.78
2018-11-28T16:47:30.046Z,5.68
2018-11-28T16:51:34.182Z,5.70
2018-11-28T16:55:38.264Z,5.73
2018-11-28T16:59:42.269Z,5.70
2018-11-28T17:03:46.335Z,5.73
2018-11-28T17:07:50.720Z,5.68
2018-11-28T17:11:54.814Z,5.72
2018-11-28T17:15:59.028Z,5.74
2018-11-28T17:20:03.060Z,5.74
2018-11-28T17:24:07.072Z,5.77
2018-11-28T17:28:11.172Z,5.77
2018-11-28T17:32:15.189Z,5.76
2018-11-28T17:36:19.188Z,5.80
2018-11-28T17:40:24.507Z,5.81
2018-11-28T17:44:28.611Z,5.82
2018-11-28T17:48:32.745Z,5.89
2018-11-28T17:52:36.782Z,5.86
2018-11-28T17:58:05.712Z,5.90
2018-11-28T18:02:09.798Z,5.88
2018-11-28T18:06:14.022Z,5.96
2018-11-28T18:11:22.391Z,5.95
2018-11-28T18:15:26.372Z,5.93
2018-11-28T18:19:30.526Z,6.00
2018-11-28T18:23:34.527Z,5.97
2018-11-28T18:27:38.646Z,5.94
2018-11-28T18:31:42.912Z,6.02
2018-11-28T18:35:48.197Z,6.02
2018-11-28T18:39:52.280Z,6.08
2018-11-28T18:43:56.365Z,6.10
2018-11-28T18:48:00.468Z,6.13
2018-11-28T18:52:04.545Z,6.18
2018-11-28T18:56:08.771Z,6.17
2018-11-28T19:00:15.903Z,6.14
2018-11-28T19:04:20.013Z,6.14
2018-11-28T19:08:24.209Z,6.18
2018-11-28T19:12:28.383Z,6.26
2018-11-28T19:16:37.769Z,6.26
2018-11-28T19:20:36.592Z,6.27
2018-11-28T19:24:40.652Z,6.32
2018-11-28T19:28:44.723Z,6.33
2018-11-28T19:32:49.918Z,6.34
2018-11-28T19:36:54.033Z,6.31
2018-11-28T19:40:59.924Z,6.29
2018-11-28T19:45:04.511Z,6.29
2018-11-28T19:49:09.061Z,6.32
2018-11-28T19:53:13.051Z,6.32
2018-11-28T19:57:17.049Z,6.35
2018-11-28T20:01:21.171Z,6.33
2018-11-28T20:05:25.381Z,6.40
2018-11-28T20:09:29.448Z,6.35
2018-11-28T20:13:33.495Z,6.32
2018-11-28T20:17:37.588Z,6.32
2018-11-28T20:21:41.641Z,6.34
2018-11-28T20:25:45.866Z,6.39
2018-11-28T20:29:49.921Z,6.37
2018-11-28T20:33:53.981Z,6.33
2018-11-28T20:37:58.052Z,6.34
2018-11-28T20:42:02.129Z,6.31
2018-11-28T20:46:07.025Z,6.32
2018-11-28T20:50:14.312Z,6.33
2018-11-28T20:54:18.456Z,6.35
2018-11-28T20:58:22.565Z,6.32
2018-11-28T21:02:26.585Z,6.29
2018-11-28T21:06:30.623Z,6.38
2018-11-28T21:10:34.700Z,6.38
2018-11-28T21:14:38.688Z,6.42
2018-11-28T21:18:42.716Z,6.42
2018-11-28T21:22:51.838Z,6.49
2018-11-28T21:26:55.949Z,6.48
2018-11-28T21:30:59.956Z,6.46
2018-11-28T21:35:04.169Z,6.43
2018-11-28T21:39:09.405Z,6.48
2018-11-28T21:43:13.380Z,6.50
2018-11-28T21:47:17.472Z,6.53
2018-11-28T21:51:21.499Z,6.50
2018-11-28T21:55:25.655Z,6.58
2018-11-28T21:59:29.785Z,6.59
2018-11-28T22:03:33.780Z,6.57
2018-11-28T22:07:37.909Z,6.57
2018-11-28T22:11:42.035Z,6.64
2018-11-28T22:15:46.084Z,6.67
2018-11-28T22:19:51.066Z,6.75
2018-11-28T22:23:55.176Z,6.67
2018-11-28T22:27:59.188Z,6.74
2018-11-28T22:32:03.248Z,6.73
2018-11-28T22:36:07.226Z,6.71
2018-11-28T22:40:13.217Z,6.73
2018-11-28T22:44:17.309Z,6.81
2018-11-28T22:48:21.371Z,6.78
2018-11-28T22:52:26.288Z,6.83
2018-11-28T22:56:30.348Z,6.82
2018-11-28T23:00:39.748Z,6.86
2018-11-28T23:04:43.840Z,6.84
2018-11-28T23:08:47.865Z,6.96
2018-11-28T23:12:51.921Z,6.91
2018-11-28T23:16:56.083Z,6.94
2018-11-28T23:21:00.221Z,6.93
2018-11-28T23:25:04.658Z,6.91
2018-11-28T23:29:08.781Z,6.91
2018-11-28T23:33:16.120Z,6.94
2018-11-28T23:37:16.776Z,6.92
2018-11-28T23:41:20.789Z,7.00
2018-11-28T23:45:25.490Z,7.08
2018-11-28T23:49:29.637Z,7.16
2018-11-28T23:53:33.750Z,7.15
2018-11-28T23:57:37.861Z,7.23
